createdAt,value
2023-05-08T00:02:08.550Z,72.08
2023-05-08T00:04:35.555Z,72.12
2023-05-08T00:07:02.618Z,72.61
2023-05-08T00:09:29.530Z,73.16
2023-05-08T00:11:56.530Z,72.50
2023-05-08T00:14:23.414Z,72.85
2023-05-08T00:16:50.502Z,73.04
2023-05-08T00:19:17.704Z,73.24
2023-05-08T00:21:44.844Z,72.98
2023-05-08T00:24:11.840Z,72.92
2023-05-08T00:26:38.752Z,72.87
2023-05-08T00:29:06.677Z,74.15
2023-05-08T00:31:34.054Z,74.81
2023-05-08T00:34:01.065Z,75.35
2023-05-08T00:36:28.453Z,76.21
2023-05-08T00:38:55.657Z,75.92
2023-05-08T00:41:22.666Z,76.00
2023-05-08T00:43:49.542Z,75.91
2023-05-08T00:46:16.586Z,76.00
2023-05-08T00:48:45.372Z,75.98
2023-05-08T00:51:13.042Z,76.03
2023-05-08T00:53:42.993Z,76.60
2023-05-08T00:56:13.110Z,76.76
2023-05-08T00:58:41.109Z,76.40
2023-05-08T01:01:08.172Z,76.77
2023-05-08T01:03:36.445Z,77.09
2023-05-08T01:06:05.229Z,75.90
2023-05-08T01:08:32.850Z,76.61
2023-05-08T01:11:18.016Z,76.87
2023-05-08T01:13:51.512Z,76.99
2023-05-08T01:16:29.324Z,76.74
2023-05-08T01:18:59.205Z,77.09
2023-05-08T01:22:15.983Z,77.54
2023-05-08T01:25:10.945Z,78.10
2023-05-08T01:28:04.274Z,78.67
2023-05-08T01:30:46.891Z,78.01
2023-05-08T01:33:21.028Z,77.82
2023-05-08T01:35:53.172Z,78.58
2023-05-08T01:38:31.006Z,78.57
2023-05-08T01:41:08.876Z,79.22
2023-05-08T01:43:50.400Z,79.60
2023-05-08T01:46:21.056Z,79.38
2023-05-08T01:49:07.096Z,79.82
2023-05-08T01:51:40.520Z,80.07
2023-05-08T01:54:11.014Z,80.36
2023-05-08T01:56:40.453Z,80.93
2023-05-08T01:59:08.416Z,81.43
2023-05-08T02:01:36.829Z,83.21
2023-05-08T02:04:06.803Z,83.63
2023-05-08T02:06:36.427Z,84.47
2023-05-08T02:09:03.590Z,84.55
2023-05-08T02:11:32.952Z,83.82
2023-05-08T02:14:01.851Z,83.78
2023-05-08T02:16:30.349Z,83.28
2023-05-08T02:19:01.197Z,83.06
2023-05-08T02:21:30.970Z,83.72
2023-05-08T02:23:59.450Z,83.68
2023-05-08T02:26:28.654Z,83.89
2023-05-08T02:28:56.302Z,83.68
2023-05-08T02:31:24.562Z,83.42
2023-05-08T02:33:53.852Z,83.72
2023-05-08T02:36:23.049Z,84.31
2023-05-08T02:38:52.821Z,85.15
2023-05-08T02:41:23.023Z,85.19
2023-05-08T02:43:52.124Z,85.35
2023-05-08T02:46:26.483Z,85.13
2023-05-08T02:49:15.024Z,85.33
2023-05-08T02:52:14.406Z,85.94
2023-05-08T02:55:15.190Z,86.58
2023-05-08T02:57:42.246Z,86.11
2023-05-08T03:00:27.582Z,85.84
2023-05-08T03:03:00.168Z,85.48
2023-05-08T03:05:32.590Z,84.94
2023-05-08T03:08:15.415Z,84.62
2023-05-08T03:10:45.164Z,84.51
2023-05-08T03:13:14.035Z,84.31
2023-05-08T03:15:55.501Z,84.16
2023-05-08T03:18:29.764Z,83.55
2023-05-08T03:20:59.398Z,83.90
2023-05-08T03:23:29.230Z,83.96
2023-05-08T03:25:58.980Z,83.66
2023-05-08T03:28:28.629Z,82.55
2023-05-08T03:30:59.150Z,81.28
2023-05-08T03:33:27.797Z,80.38
2023-05-08T03:35:56.667Z,79.42
2023-05-08T03:38:24.206Z,79.02
2023-05-08T03:40:51.242Z,78.34
2023-05-08T03:43:20.502Z,77.46
2023-05-08T03:45:47.991Z,76.80
2023-05-08T03:48:16.887Z,76.43
2023-05-08T03:50:45.024Z,75.50
2023-05-08T03:53:12.022Z,74.94
2023-05-08T03:55:39.428Z,74.07
2023-05-08T03:58:17.841Z,73.34
2023-05-08T04:01:05.897Z,74.01
2023-05-08T04:04:01.309Z,73.17
2023-05-08T04:06:48.640Z,71.78
2023-05-08T04:09:31.008Z,70.83
2023-05-08T04:12:09.723Z,71.22
2023-05-08T04:14:50.836Z,70.72
2023-05-08T04:17:31.591Z,70.49
2023-05-08T04:20:02.725Z,69.70
2023-05-08T04:22:33.957Z,70.01
2023-05-08T04:25:04.084Z,70.33
2023-05-08T04:27:31.923Z,69.50
2023-05-08T04:29:59.878Z,68.59
2023-05-08T04:32:29.268Z,67.76
2023-05-08T04:34:56.660Z,68.35
2023-05-08T04:37:31.351Z,69.05
2023-05-08T04:40:01.168Z,68.29
2023-05-08T04:42:29.934Z,67.64
2023-05-08T04:44:59.221Z,67.49
2023-05-08T04:47:26.286Z,66.80
2023-05-08T04:49:53.643Z,66.24
2023-05-08T04:52:20.603Z,65.90
2023-05-08T04:54:47.669Z,65.88
2023-05-08T04:57:14.698Z,65.70
2023-05-08T04:59:42.130Z,64.97
2023-05-08T05:02:09.401Z,65.21
2023-05-08T05:04:37.442Z,64.71
2023-05-08T05:07:05.848Z,65.55
2023-05-08T05:09:37.197Z,64.61
2023-05-08T05:12:06.453Z,64.00
2023-05-08T05:14:33.669Z,64.92
2023-05-08T05:17:01.090Z,65.86
2023-05-08T05:19:28.144Z,65.66
2023-05-08T05:21:55.675Z,65.11
2023-05-08T05:24:22.967Z,65.60
2023-05-08T05:26:49.875Z,64.87
2023-05-08T05:29:17.394Z,63.99
2023-05-08T05:31:44.794Z,64.34
2023-05-08T05:34:12.627Z,64.07
2023-05-08T05:36:40.639Z,64.03
2023-05-08T05:39:07.948Z,62.59
2023-05-08T05:41:36.302Z,62.01
2023-05-08T05:44:03.874Z,61.81
2023-05-08T05:46:32.852Z,60.15
2023-05-08T05:49:02.979Z,59.63
2023-05-08T05:51:30.073Z,60.74
2023-05-08T05:53:57.301Z,58.51
2023-05-08T05:56:25.734Z,57.98
2023-05-08T05:58:52.773Z,57.56
2023-05-08T06:01:20.003Z,57.31
2023-05-08T06:03:47.522Z,57.04
2023-05-08T06:06:14.597Z,57.72
2023-05-08T06:08:41.559Z,57.10
2023-05-08T06:11:08.777Z,57.15
2023-05-08T06:13:35.975Z,56.14
2023-05-08T06:16:03.391Z,56.31
2023-05-08T06:18:30.752Z,55.68
2023-05-08T06:20:58.608Z,55.37
2023-05-08T06:23:27.004Z,56.79
2023-05-08T06:25:54.427Z,57.46
2023-05-08T06:28:22.688Z,56.45
2023-05-08T06:30:49.708Z,55.49
2023-05-08T06:33:17.000Z,55.32
2023-05-08T06:35:47.883Z,56.93
2023-05-08T06:38:15.918Z,56.91
2023-05-08T06:40:46.914Z,57.66
2023-05-08T06:43:14.042Z,55.31
2023-05-08T06:45:40.951Z,56.66
2023-05-08T06:48:08.177Z,57.18
2023-05-08T06:50:38.323Z,56.11
2023-05-08T06:53:05.633Z,55.83
2023-05-08T06:55:32.910Z,54.59
2023-05-08T06:58:00.061Z,53.79
2023-05-08T07:00:27.313Z,54.40
2023-05-08T07:02:54.215Z,52.98
2023-05-08T07:05:21.577Z,53.23
2023-05-08T07:07:48.485Z,53.03
2023-05-08T07:10:16.841Z,53.25
2023-05-08T07:12:44.524Z,52.91
2023-05-08T07:15:24.762Z,52.46
2023-05-08T07:17:54.096Z,51.89
2023-05-08T07:20:21.792Z,52.58
2023-05-08T07:22:49.050Z,51.51
2023-05-08T07:25:16.341Z,51.85
2023-05-08T07:27:43.463Z,50.67
2023-05-08T07:30:11.184Z,52.05
2023-05-08T07:32:41.505Z,50.67
2023-05-08T07:35:11.517Z,52.03
2023-05-08T07:37:41.735Z,50.64
2023-05-08T07:40:09.159Z,51.37
2023-05-08T07:42:43.313Z,50.71
2023-05-08T07:45:12.313Z,50.16
2023-05-08T07:47:48.355Z,49.99
2023-05-08T07:50:15.730Z,50.44
2023-05-08T07:52:42.690Z,50.21
2023-05-08T07:55:09.867Z,49.79
2023-05-08T07:57:41.093Z,49.60
2023-05-08T08:00:09.730Z,49.39
2023-05-08T08:02:44.544Z,48.74
2023-05-08T08:05:12.460Z,48.93
2023-05-08T08:07:39.922Z,48.11
2023-05-08T08:10:07.964Z,46.60
2023-05-08T08:12:35.192Z,46.78
2023-05-08T08:15:02.304Z,47.00
2023-05-08T08:17:32.491Z,47.82
2023-05-08T08:20:00.096Z,48.27
2023-05-08T08:22:27.166Z,47.70
2023-05-08T08:24:57.178Z,48.72
2023-05-08T08:27:24.178Z,47.57
2023-05-08T08:29:58.515Z,47.27
2023-05-08T08:32:32.494Z,48.06
2023-05-08T08:34:59.497Z,47.63
2023-05-08T08:37:26.507Z,47.81
2023-05-08T08:39:53.849Z,48.34
2023-05-08T08:42:20.824Z,47.54
2023-05-08T08:44:47.678Z,48.76
2023-05-08T08:47:16.682Z,48.75
2023-05-08T08:49:47.772Z,49.61
2023-05-08T08:52:30.864Z,48.85
2023-05-08T08:55:00.605Z,48.43
2023-05-08T08:57:32.928Z,49.36
2023-05-08T09:00:03.985Z,49.41
2023-05-08T09:02:35.272Z,50.10
2023-05-08T09:05:03.478Z,49.32
2023-05-08T09:07:33.273Z,49.98
2023-05-08T09:10:00.696Z,49.61
2023-05-08T09:12:27.632Z,48.56
2023-05-08T09:14:54.861Z,47.93
2023-05-08T09:17:22.752Z,48.79
2023-05-08T09:19:49.927Z,49.01
2023-05-08T09:22:17.860Z,49.16
2023-05-08T09:24:55.013Z,50.02
2023-05-08T09:27:23.618Z,49.77
2023-05-08T09:30:05.167Z,48.21
2023-05-08T09:32:36.743Z,48.82
2023-05-08T09:35:05.719Z,49.30
2023-05-08T09:37:34.055Z,49.04
2023-05-08T09:40:21.932Z,48.60
2023-05-08T09:42:50.893Z,48.33
2023-05-08T09:45:29.687Z,47.61
2023-05-08T09:47:57.027Z,48.79
2023-05-08T09:50:25.252Z,49.85
2023-05-08T09:52:52.522Z,49.38
2023-05-08T09:55:20.146Z,49.64
2023-05-08T09:58:00.119Z,49.38
2023-05-08T10:00:28.872Z,49.68
2023-05-08T10:03:01.708Z,50.05
2023-05-08T10:05:34.844Z,48.75
2023-05-08T10:08:19.828Z,49.34
2023-05-08T10:10:47.386Z,48.26
2023-05-08T10:13:14.849Z,47.95
2023-05-08T10:15:43.088Z,46.59
2023-05-08T10:18:12.101Z,45.79
2023-05-08T10:20:41.485Z,46.26
2023-05-08T10:23:14.516Z,45.95
2023-05-08T10:25:54.790Z,46.92
2023-05-08T10:28:49.224Z,48.31
2023-05-08T10:31:18.368Z,48.35
2023-05-08T10:33:46.612Z,48.65
2023-05-08T10:36:15.052Z,49.67
2023-05-08T10:38:43.360Z,51.24
2023-05-08T10:41:14.043Z,51.56
2023-05-08T10:43:44.062Z,51.74
2023-05-08T10:46:47.468Z,50.86
2023-05-08T10:49:28.033Z,52.04
2023-05-08T10:52:09.737Z,51.70
2023-05-08T10:54:39.824Z,50.88
2023-05-08T10:57:09.596Z,48.97
2023-05-08T10:59:39.815Z,50.45
2023-05-08T11:02:08.509Z,50.30
2023-05-08T11:04:35.766Z,50.54
2023-05-08T11:07:04.482Z,50.82
2023-05-08T11:09:47.156Z,50.43
2023-05-08T11:12:26.557Z,50.22
2023-05-08T11:14:58.849Z,49.14
2023-05-08T11:17:26.538Z,47.98
2023-05-08T11:19:59.326Z,48.91
2023-05-08T11:22:32.653Z,48.60
2023-05-08T11:25:06.251Z,48.24
2023-05-08T11:27:49.713Z,48.74
2023-05-08T11:30:34.796Z,48.77
2023-05-08T11:33:05.359Z,47.15
2023-05-08T11:35:45.657Z,46.83
2023-05-08T11:38:29.168Z,47.29
2023-05-08T11:41:05.060Z,45.86
2023-05-08T11:43:32.130Z,45.19
2023-05-08T11:46:15.481Z,45.03
2023-05-08T11:48:43.241Z,45.35
2023-05-08T11:51:10.454Z,43.54
2023-05-08T11:53:37.979Z,44.03
2023-05-08T11:56:05.502Z,44.32
2023-05-08T11:58:32.513Z,43.09
2023-05-08T12:00:59.597Z,42.39
2023-05-08T12:03:26.814Z,41.01
2023-05-08T12:05:58.724Z,41.74
2023-05-08T12:08:26.236Z,41.29
2023-05-08T12:10:55.013Z,40.80
2023-05-08T12:13:24.274Z,41.74
2023-05-08T12:15:55.348Z,41.83
2023-05-08T12:18:23.871Z,41.31
2023-05-08T12:20:58.248Z,41.07
2023-05-08T12:23:26.395Z,41.79
2023-05-08T12:25:55.403Z,40.91
2023-05-08T12:28:22.890Z,40.49
2023-05-08T12:30:50.455Z,41.50
2023-05-08T12:33:18.995Z,41.83
2023-05-08T12:35:46.320Z,41.41
2023-05-08T12:38:13.614Z,40.72
2023-05-08T12:40:45.678Z,40.21
2023-05-08T12:43:12.798Z,40.02
2023-05-08T12:45:41.405Z,40.60
2023-05-08T12:48:11.102Z,40.95
2023-05-08T12:50:42.947Z,41.58
2023-05-08T12:53:16.667Z,41.88
2023-05-08T12:55:54.896Z,40.89
2023-05-08T12:58:26.463Z,41.30
2023-05-08T13:00:54.931Z,41.00
2023-05-08T13:03:27.073Z,40.28
2023-05-08T13:05:55.854Z,41.72
2023-05-08T13:08:33.222Z,47.27
2023-05-08T13:11:01.343Z,49.77
2023-05-08T13:13:31.076Z,51.33
2023-05-08T13:16:02.285Z,52.38
2023-05-08T13:18:29.319Z,53.26
2023-05-08T13:20:56.513Z,54.19
2023-05-08T13:23:23.941Z,55.06
2023-05-08T13:25:51.412Z,55.76
2023-05-08T13:28:18.366Z,56.01
2023-05-08T13:30:45.376Z,55.69
2023-05-08T13:33:12.503Z,56.62
2023-05-08T13:35:39.772Z,58.18
2023-05-08T13:38:06.715Z,58.15
2023-05-08T13:40:33.750Z,59.09
2023-05-08T13:43:00.678Z,60.50
2023-05-08T13:45:27.811Z,60.61
2023-05-08T13:47:55.049Z,61.39
2023-05-08T13:50:22.952Z,60.24
2023-05-08T13:52:51.690Z,59.91
2023-05-08T13:55:22.803Z,59.59
2023-05-08T13:57:50.709Z,60.09
2023-05-08T14:00:18.319Z,60.43
2023-05-08T14:02:45.629Z,61.01
2023-05-08T14:05:12.955Z,60.42
2023-05-08T14:07:40.203Z,61.30
2023-05-08T14:10:07.323Z,61.28
2023-05-08T14:12:38.228Z,62.02
2023-05-08T14:15:05.866Z,63.13
2023-05-08T14:17:35.421Z,63.62
2023-05-08T14:20:03.744Z,65.32
2023-05-08T14:22:34.546Z,66.12
2023-05-08T14:25:01.554Z,66.59
2023-05-08T14:27:28.833Z,67.07
2023-05-08T14:29:55.749Z,66.89
2023-05-08T14:32:22.665Z,67.37
2023-05-08T14:34:49.610Z,67.87
2023-05-08T14:37:17.726Z,67.33
2023-05-08T14:39:45.552Z,67.39
2023-05-08T14:44:42.423Z,66.80
2023-05-08T14:47:09.529Z,67.19
2023-05-08T14:49:38.527Z,66.87
2023-05-08T14:52:07.398Z,66.55
2023-05-08T14:54:34.770Z,67.86
2023-05-08T14:57:01.919Z,67.87
2023-05-08T14:59:29.072Z,68.23
2023-05-08T15:01:55.971Z,67.63
2023-05-08T15:04:23.136Z,67.21
2023-05-08T15:06:50.215Z,66.39
2023-05-08T15:09:17.187Z,66.35
2023-05-08T15:11:44.691Z,67.21
2023-05-08T15:14:11.644Z,66.44
2023-05-08T15:16:38.670Z,65.98
2023-05-08T15:19:05.681Z,66.05
2023-05-08T15:21:32.666Z,66.00
2023-05-08T15:23:59.685Z,65.44
2023-05-08T15:26:26.710Z,65.37
2023-05-08T15:28:53.552Z,65.40
2023-05-08T15:31:21.157Z,65.05
2023-05-08T15:33:48.418Z,65.77
2023-05-08T15:36:15.837Z,66.32
2023-05-08T15:38:43.073Z,67.54
2023-05-08T15:41:14.597Z,68.39
2023-05-08T15:43:43.235Z,70.15
2023-05-08T15:46:10.376Z,70.31
2023-05-08T15:48:37.495Z,70.55
2023-05-08T15:51:04.368Z,70.84
2023-05-08T15:53:32.800Z,71.41
2023-05-08T15:55:59.744Z,72.05
2023-05-08T15:58:27.630Z,71.97
2023-05-08T16:00:54.828Z,71.95
2023-05-08T16:03:22.120Z,71.90
2023-05-08T16:05:49.372Z,71.69
2023-05-08T16:08:16.404Z,71.77
2023-05-08T16:10:43.382Z,72.26
2023-05-08T16:13:10.455Z,71.99
2023-05-08T16:15:37.394Z,71.81
2023-05-08T16:18:06.339Z,72.08
2023-05-08T16:20:35.737Z,71.63
2023-05-08T16:23:03.315Z,71.40
2023-05-08T16:25:30.254Z,71.22
2023-05-08T16:27:57.198Z,70.86
2023-05-08T16:30:24.152Z,70.58
2023-05-08T16:32:51.203Z,70.81
2023-05-08T16:35:19.581Z,69.94
2023-05-08T16:37:46.778Z,70.35
2023-05-08T16:40:13.764Z,70.71
2023-05-08T16:42:40.803Z,70.94
2023-05-08T16:45:08.533Z,70.53
2023-05-08T16:47:35.994Z,70.02
2023-05-08T16:50:04.633Z,70.36
2023-05-08T16:52:33.028Z,69.94
2023-05-08T16:55:00.350Z,71.14
2023-05-08T16:57:28.008Z,71.41
2023-05-08T16:59:54.983Z,71.33
2023-05-08T17:02:22.553Z,70.87
2023-05-08T17:04:50.512Z,70.21
2023-05-08T17:07:17.994Z,69.71
2023-05-08T17:09:45.691Z,70.92
2023-05-08T17:12:12.655Z,71.04
2023-05-08T17:14:40.697Z,71.45
2023-05-08T17:17:08.039Z,72.26
2023-05-08T17:19:35.124Z,74.03
2023-05-08T17:22:02.596Z,74.75
2023-05-08T17:24:30.768Z,76.09
2023-05-08T17:26:57.972Z,77.83
2023-05-08T17:29:25.226Z,78.18
2023-05-08T17:31:52.108Z,79.41
2023-05-08T17:34:19.145Z,80.42
2023-05-08T17:36:46.149Z,80.37
2023-05-08T17:39:13.212Z,81.48
2023-05-08T17:41:40.205Z,81.10
2023-05-08T17:44:07.199Z,81.79
2023-05-08T17:46:35.004Z,83.08
2023-05-08T17:49:02.311Z,83.09
2023-05-08T17:51:29.318Z,82.62
2023-05-08T17:53:56.691Z,83.39
2023-05-08T17:56:23.968Z,84.82
2023-05-08T17:58:55.600Z,85.13
2023-05-08T18:01:22.802Z,86.14
2023-05-08T18:03:49.857Z,86.90
2023-05-08T18:06:18.114Z,87.54
2023-05-08T18:08:45.976Z,87.06
2023-05-08T18:11:31.056Z,86.94
2023-05-08T18:13:58.013Z,86.11
2023-05-08T18:16:24.871Z,86.27
2023-05-08T18:18:52.065Z,87.19
2023-05-08T18:21:19.151Z,85.39
2023-05-08T18:23:46.107Z,85.73
2023-05-08T18:26:14.746Z,87.22
2023-05-08T18:28:41.692Z,87.79
2023-05-08T18:31:08.684Z,87.00
2023-05-08T18:33:37.041Z,86.09
2023-05-08T18:36:05.568Z,85.29
2023-05-08T18:38:33.920Z,84.62
2023-05-08T18:41:05.211Z,85.01
2023-05-08T18:43:32.272Z,86.38
2023-05-08T18:46:00.571Z,85.94
2023-05-08T18:48:27.902Z,85.31
2023-05-08T18:50:58.612Z,84.42
2023-05-08T18:53:26.058Z,85.55
2023-05-08T18:55:53.002Z,86.94
2023-05-08T18:58:20.072Z,87.09
2023-05-08T19:00:47.000Z,85.25
2023-05-08T19:03:14.462Z,84.60
2023-05-08T19:05:42.193Z,85.02
2023-05-08T19:08:09.358Z,84.56
2023-05-08T19:10:36.300Z,83.47
2023-05-08T19:13:03.374Z,83.46
2023-05-08T19:15:30.435Z,83.40
2023-05-08T19:17:57.461Z,82.92
2023-05-08T19:20:24.530Z,82.85
2023-05-08T19:22:51.756Z,83.50
2023-05-08T19:25:18.776Z,83.38
2023-05-08T19:27:47.001Z,81.21
2023-05-08T19:30:14.727Z,80.28
2023-05-08T19:32:41.696Z,80.23
2023-05-08T19:35:09.718Z,80.98
2023-05-08T19:37:37.977Z,80.00
2023-05-08T19:40:06.429Z,78.96
2023-05-08T19:42:33.605Z,79.11
2023-05-08T19:45:01.363Z,79.20
2023-05-08T19:47:32.270Z,79.16
2023-05-08T19:49:59.192Z,78.53
2023-05-08T19:52:26.317Z,78.24
2023-05-08T19:54:53.257Z,78.79
2023-05-08T19:57:20.220Z,78.87
2023-05-08T19:59:47.070Z,78.93
2023-05-08T20:02:14.143Z,78.29
2023-05-08T20:07:11.279Z,79.18
2023-05-08T20:09:38.555Z,79.81
2023-05-08T20:12:06.170Z,79.92
2023-05-08T20:14:33.140Z,79.89
2023-05-08T20:17:00.293Z,80.15
2023-05-08T20:19:27.182Z,79.86
2023-05-08T20:21:54.185Z,79.48
2023-05-08T20:24:21.053Z,79.99
2023-05-08T20:26:48.410Z,80.52
2023-05-08T20:29:15.308Z,80.17
2023-05-08T20:31:42.332Z,80.85
2023-05-08T20:34:09.225Z,81.56
2023-05-08T20:36:36.111Z,81.82
2023-05-08T20:39:03.190Z,82.37
2023-05-08T20:41:30.161Z,82.98
2023-05-08T20:43:57.020Z,84.06
2023-05-08T20:46:24.080Z,83.53
2023-05-08T20:48:51.290Z,83.45
2023-05-08T20:51:18.355Z,83.96
2023-05-08T20:53:45.305Z,84.14
2023-05-08T20:56:15.776Z,84.33
2023-05-08T20:58:44.344Z,83.83
2023-05-08T21:01:11.454Z,83.54
2023-05-08T21:03:38.784Z,82.33
2023-05-08T21:06:05.908Z,81.60
2023-05-08T21:08:32.964Z,81.79
2023-05-08T21:11:01.029Z,81.44
2023-05-08T21:13:28.110Z,81.24
2023-05-08T21:15:55.328Z,80.73
2023-05-08T21:18:22.282Z,80.52
2023-05-08T21:20:52.143Z,80.78
2023-05-08T21:23:20.179Z,80.47
2023-05-08T21:25:50.693Z,80.15
2023-05-08T21:28:17.742Z,80.13
2023-05-08T21:30:45.344Z,81.05
2023-05-08T21:33:13.969Z,80.78
2023-05-08T21:35:42.146Z,81.70
2023-05-08T21:38:11.994Z,81.90
2023-05-08T21:40:39.530Z,82.45
2023-05-08T21:43:06.470Z,81.55
2023-05-08T21:45:33.494Z,80.71
2023-05-08T21:48:01.049Z,79.75
2023-05-08T21:50:31.074Z,80.30
2023-05-08T21:52:57.993Z,81.14
2023-05-08T21:55:25.347Z,81.19
2023-05-08T21:57:53.793Z,81.27
2023-05-08T22:00:21.100Z,81.37
2023-05-08T22:02:48.471Z,81.94
2023-05-08T22:05:15.753Z,82.27
2023-05-08T22:07:42.865Z,82.32
2023-05-08T22:10:11.664Z,82.68
2023-05-08T22:12:38.661Z,83.96
2023-05-08T22:15:12.083Z,84.61
2023-05-08T22:17:50.638Z,84.39
2023-05-08T22:20:18.222Z,83.89
2023-05-08T22:22:45.342Z,84.60
2023-05-08T22:25:12.468Z,84.70
2023-05-08T22:27:39.621Z,84.38
2023-05-08T22:30:07.401Z,85.40
2023-05-08T22:32:35.131Z,85.36
2023-05-08T22:35:02.784Z,85.18
2023-05-08T22:37:31.125Z,86.18
2023-05-08T22:39:58.146Z,86.67
2023-05-08T22:42:25.499Z,86.71
2023-05-08T22:44:52.656Z,86.85
2023-05-08T22:47:19.678Z,87.11
2023-05-08T22:49:47.994Z,87.21
2023-05-08T22:52:14.956Z,86.83
2023-05-08T22:54:41.937Z,86.70
2023-05-08T22:57:08.988Z,86.66
2023-05-08T22:59:36.452Z,86.49
2023-05-08T23:02:03.494Z,86.08
2023-05-08T23:04:30.382Z,86.33
2023-05-08T23:06:57.379Z,86.36
2023-05-08T23:09:24.224Z,86.21
2023-05-08T23:11:51.432Z,86.17
2023-05-08T23:14:18.289Z,85.93
2023-05-08T23:16:45.161Z,86.04
2023-05-08T23:19:12.065Z,86.53
2023-05-08T23:21:39.155Z,86.67
2023-05-08T23:24:06.414Z,86.97
2023-05-08T23:26:33.451Z,86.85
2023-05-08T23:29:01.368Z,86.20
2023-05-08T23:31:28.701Z,87.06
2023-05-08T23:33:55.903Z,85.58
2023-05-08T23:36:22.902Z,85.81
2023-05-08T23:38:49.816Z,86.74
2023-05-08T23:41:17.483Z,87.80
2023-05-08T23:43:44.435Z,88.39
2023-05-08T23:46:11.646Z,88.95
2023-05-08T23:48:38.597Z,89.58
2023-05-08T23:51:05.588Z,89.45
2023-05-08T23:53:32.559Z,88.82
2023-05-08T23:55:59.539Z,88.83
2023-05-08T23:58:26.354Z,89.63
